METAR Data
IDs: Format: Raw Decoded Include TAF

Data at: 1556 UTC 18 Aug 2019

PAGH 181456Z AUTO 09006KT 10SM CLR 03/02 A3051 RMK AO2 SLP338 6//// T00280017 58002 PNO $
PAGH 181356Z AUTO 13004KT 10SM CLR 03/02 A3052 RMK AO2 SLP342 T00330022 PNO $
PAGH 181256Z AUTO 10004KT 10SM CLR 03/02 A3052 RMK AO2 SLP341 T00280022 PNO $
PAGH 181156Z AUTO 23006KT 10SM CLR 06/02 A3052 RMK AO2 SLP340 6//// 7//// T00560022 10122 20056 58005 PNO $
PAGH 181056Z AUTO 23005KT 10SM CLR 07/02 A3053 RMK AO2 SLP344 T00720022 PNO $
PAGH 180956Z AUTO 27008KT 10SM CLR 08/02 A3053 RMK AO2 SLP344 T00780022 PNO $
PAGH 180856Z AUTO 28007KT 10SM CLR 08/03 A3054 RMK AO2 SLP346 6//// T00830028 401610028 56006 PNO $
PAGH 180756Z AUTO 27006KT 10SM CLR 09/03 A3054 RMK AO2 SLP346 T00890033 PNO $
PAGH 180656Z AUTO 26006KT 10SM CLR 11/04 A3053 RMK AO2 SLP343 T01110039 PNO $
PAGH 180556Z AUTO 29007KT 10SM CLR 12/05 A3055 RMK AO2 SLP351 6//// T01220050 10161 20122 58006 PNO $
PAGH 180456Z AUTO 29009KT 10SM CLR 14/06 A3056 RMK AO2 SLP355 T01390056 PNO $
PAGH 180356Z AUTO 30011KT 10SM CLR 16/05 A3058 RMK AO2 SLP359 T01560050 PNO $
PAGH 180256Z AUTO 31011KT 10SM CLR 16/04 A3057 RMK AO2 SLP357 6//// T01610039 58019 PNO $
PAGH 180156Z AUTO 32009KT 10SM CLR 16/02 A3060 RMK AO2 SLP367 T01610017 PNO $
PAGH 180056Z AUTO 29008KT 10SM CLR 16/02 A3060 RMK AO2 PRESFR SLP367 T01560022 PNO $
PAGH 172356Z AUTO 29005KT 10SM CLR 15/02 A3063 RMK AO2 SLP376 6//// T01500017 10150 20061 58010 PNO $
PAGH 172256Z AUTO VRB04KT 10SM CLR 14/02 A3064 RMK AO2 SLP381 T01390022 PNO $
PAGH 172156Z AUTO VRB03KT 10SM CLR 13/02 A3065 RMK AO2 SLP384 T01280022 PNO $
PAGH 172056Z AUTO 29004KT 10SM CLR 12/02 A3066 RMK AO2 SLP386 6//// T01170022 51007 PNO $
PAGH 171956Z AUTO 00000KT 10SM CLR 10/03 A3066 RMK AO2 SLP386 T01000028 PNO $
PAGH 171856Z AUTO 00000KT 10SM CLR 08/03 A3065 RMK AO2 SLP383 T00830033 PNO $
PAGH 171756Z AUTO 00000KT 10SM CLR 06/03 A3063 RMK AO2 SLP379 6//// T00610028 10061 20028 51014 PNO $
PAGH 171656Z AUTO 10005KT 10SM CLR 04/02 A3062 RMK AO2 SLP376 T00390022 PNO $
PAGH 171556Z AUTO 11004KT 10SM CLR 03/02 A3062 RMK AO2 SLP373 T00330017 PNO $
PAGH 171456Z AUTO 19005KT 10SM CLR 03/02 A3059 RMK AO2 SLP365 6//// T00330017 51021 PNO $
PAGH 171356Z AUTO 21006KT 10SM CLR 04/01 A3058 RMK AO2 SLP360 T00390011 PNO $
PAGH 171256Z AUTO 21006KT 10SM CLR 04/01 A3055 RMK AO2 SLP351 T00390011 PNO $
PAGH 171156Z AUTO 28005KT 10SM CLR 06/01 A3053 RMK AO2 SLP343 6//// 7//// T00610006 10111 20061 53021 PNO $
PAGH 171056Z AUTO 21005KT 10SM CLR 07/00 A3051 RMK AO2 SLP336 T00720000 PNO $
PAGH 170956Z AUTO 31009KT 10SM CLR 07/01 A3049 RMK AO2 SLP328 T00720006 PNO $
PAGH 170856Z AUTO 29007KT 10SM CLR 07/01 A3047 RMK AO2 SLP322 6//// T00670011 401390067 53032 PNO $
PAGH 170756Z AUTO 32010KT 10SM CLR 08/02 A3043 RMK AO2 SLP310 T00780017 PNO $
PAGH 170656Z AUTO 34014KT 10SM CLR 09/02 A3039 RMK AO2 SLP297 T00940017 PNO $
PAGH 170556Z AUTO 35016G19KT 10SM CLR 11/02 A3037 RMK AO2 SLP290 6//// T01110017 10139 20111 51030 PNO $
PAGH 170456Z AUTO 31011KT 10SM CLR 12/03 A3035 RMK AO2 SLP284 T01220033 PNO $